sensor_id;sensor_type;location;lat;lon;timestamp;temperature;humidity
31527;DHT22;18136;42.236;-73.040;2023-05-29T00:01:28;21.20;92.20
31527;DHT22;18136;42.236;-73.040;2023-05-29T00:03:54;21.10;92.10
31527;DHT22;18136;42.236;-73.040;2023-05-29T00:06:20;21.00;93.10
31527;DHT22;18136;42.236;-73.040;2023-05-29T00:08:46;21.00;93.50
31527;DHT22;18136;42.236;-73.040;2023-05-29T00:11:13;20.90;93.00
31527;DHT22;18136;42.236;-73.040;2023-05-29T00:13:39;20.80;93.00
31527;DHT22;18136;42.236;-73.040;2023-05-29T00:16:06;20.70;93.40
31527;DHT22;18136;42.236;-73.040;2023-05-29T00:18:32;20.60;94.10
31527;DHT22;18136;42.236;-73.040;2023-05-29T00:20:59;20.60;94.60
31527;DHT22;18136;42.236;-73.040;2023-05-29T00:23:25;20.50;93.50
31527;DHT22;18136;42.236;-73.040;2023-05-29T00:25:51;20.40;93.70
31527;DHT22;18136;42.236;-73.040;2023-05-29T00:28:17;20.30;93.90
31527;DHT22;18136;42.236;-73.040;2023-05-29T00:30:44;20.30;94.80
31527;DHT22;18136;42.236;-73.040;2023-05-29T00:33:10;20.20;94.40
31527;DHT22;18136;42.236;-73.040;2023-05-29T00:35:36;20.10;94.70
31527;DHT22;18136;42.236;-73.040;2023-05-29T00:38:03;20.00;94.40
31527;DHT22;18136;42.236;-73.040;2023-05-29T00:40:29;20.00;94.70
31527;DHT22;18136;42.236;-73.040;2023-05-29T00:42:55;19.90;94.60
31527;DHT22;18136;42.236;-73.040;2023-05-29T00:45:21;19.90;94.30
31527;DHT22;18136;42.236;-73.040;2023-05-29T00:47:47;19.80;94.50
31527;DHT22;18136;42.236;-73.040;2023-05-29T00:50:14;19.80;94.80
31527;DHT22;18136;42.236;-73.040;2023-05-29T00:52:41;19.70;95.20
31527;DHT22;18136;42.236;-73.040;2023-05-29T00:55:09;19.60;94.60
31527;DHT22;18136;42.236;-73.040;2023-05-29T00:57:35;19.60;95.00
31527;DHT22;18136;42.236;-73.040;2023-05-29T01:00:05;19.60;95.60
31527;DHT22;18136;42.236;-73.040;2023-05-29T01:02:35;19.50;95.40
31527;DHT22;18136;42.236;-73.040;2023-05-29T01:05:02;19.40;95.90
31527;DHT22;18136;42.236;-73.040;2023-05-29T01:07:29;19.40;96.10
31527;DHT22;18136;42.236;-73.040;2023-05-29T01:09:55;19.30;96.50
31527;DHT22;18136;42.236;-73.040;2023-05-29T01:12:43;19.30;96.80
31527;DHT22;18136;42.236;-73.040;2023-05-29T01:21:27;19.20;95.60
31527;DHT22;18136;42.236;-73.040;2023-05-29T01:24:02;19.20;95.50
31527;DHT22;18136;42.236;-73.040;2023-05-29T01:29:07;19.20;95.80
31527;DHT22;18136;42.236;-73.040;2023-05-29T01:31:36;19.10;95.70
31527;DHT22;18136;42.236;-73.040;2023-05-29T01:34:03;19.10;95.80
31527;DHT22;18136;42.236;-73.040;2023-05-29T01:36:33;19.10;96.10
31527;DHT22;18136;42.236;-73.040;2023-05-29T01:39:04;19.10;96.70
31527;DHT22;18136;42.236;-73.040;2023-05-29T01:41:31;19.00;96.80
31527;DHT22;18136;42.236;-73.040;2023-05-29T01:44:00;19.00;96.80
31527;DHT22;18136;42.236;-73.040;2023-05-29T01:46:27;19.00;96.40
31527;DHT22;18136;42.236;-73.040;2023-05-29T01:48:55;18.90;96.20
31527;DHT22;18136;42.236;-73.040;2023-05-29T01:51:22;18.90;96.20
31527;DHT22;18136;42.236;-73.040;2023-05-29T01:53:48;18.80;97.00
31527;DHT22;18136;42.236;-73.040;2023-05-29T01:56:15;18.80;96.50
31527;DHT22;18136;42.236;-73.040;2023-05-29T01:58:41;18.80;96.30
31527;DHT22;18136;42.236;-73.040;2023-05-29T02:01:08;18.80;96.30
31527;DHT22;18136;42.236;-73.040;2023-05-29T02:03:34;18.70;96.50
31527;DHT22;18136;42.236;-73.040;2023-05-29T02:06:01;18.70;96.60
31527;DHT22;18136;42.236;-73.040;2023-05-29T02:08:27;18.70;96.50
31527;DHT22;18136;42.236;-73.040;2023-05-29T02:10:54;18.70;96.30
31527;DHT22;18136;42.236;-73.040;2023-05-29T02:13:21;18.60;96.50
31527;DHT22;18136;42.236;-73.040;2023-05-29T02:15:48;18.60;97.00
31527;DHT22;18136;42.236;-73.040;2023-05-29T02:18:15;18.50;97.10
31527;DHT22;18136;42.236;-73.040;2023-05-29T02:20:44;18.50;96.90
31527;DHT22;18136;42.236;-73.040;2023-05-29T02:23:11;18.50;96.90
31527;DHT22;18136;42.236;-73.040;2023-05-29T02:25:40;18.40;97.20
31527;DHT22;18136;42.236;-73.040;2023-05-29T02:28:06;18.40;97.80
31527;DHT22;18136;42.236;-73.040;2023-05-29T02:30:35;18.40;98.40
31527;DHT22;18136;42.236;-73.040;2023-05-29T02:33:01;18.30;98.40
31527;DHT22;18136;42.236;-73.040;2023-05-29T02:35:27;18.20;98.50
31527;DHT22;18136;42.236;-73.040;2023-05-29T02:37:54;18.20;98.70
31527;DHT22;18136;42.236;-73.040;2023-05-29T02:40:20;18.10;98.80
31527;DHT22;18136;42.236;-73.040;2023-05-29T02:42:49;18.00;98.70
31527;DHT22;18136;42.236;-73.040;2023-05-29T02:45:18;18.00;99.20
31527;DHT22;18136;42.236;-73.040;2023-05-29T02:47:44;17.90;99.90
31527;DHT22;18136;42.236;-73.040;2023-05-29T02:50:10;17.80;99.90
31527;DHT22;18136;42.236;-73.040;2023-05-29T02:52:36;17.80;99.70
31527;DHT22;18136;42.236;-73.040;2023-05-29T02:55:03;17.70;99.40
31527;DHT22;18136;42.236;-73.040;2023-05-29T02:57:31;17.70;99.60
31527;DHT22;18136;42.236;-73.040;2023-05-29T02:59:58;17.60;99.90
31527;DHT22;18136;42.236;-73.040;2023-05-29T03:02:27;17.60;99.90
31527;DHT22;18136;42.236;-73.040;2023-05-29T03:04:53;17.50;99.90
31527;DHT22;18136;42.236;-73.040;2023-05-29T03:07:19;17.50;99.90
31527;DHT22;18136;42.236;-73.040;2023-05-29T03:09:46;17.40;99.90
31527;DHT22;18136;42.236;-73.040;2023-05-29T03:12:12;17.40;99.90
31527;DHT22;18136;42.236;-73.040;2023-05-29T03:14:38;17.40;99.90
31527;DHT22;18136;42.236;-73.040;2023-05-29T03:17:38;17.30;99.90
31527;DHT22;18136;42.236;-73.040;2023-05-29T03:20:05;17.20;99.90
31527;DHT22;18136;42.236;-73.040;2023-05-29T03:22:32;17.20;99.90
31527;DHT22;18136;42.236;-73.040;2023-05-29T03:24:58;17.10;99.90
31527;DHT22;18136;42.236;-73.040;2023-05-29T03:27:24;17.10;99.90
31527;DHT22;18136;42.236;-73.040;2023-05-29T03:29:51;17.10;99.90
31527;DHT22;18136;42.236;-73.040;2023-05-29T03:32:18;17.00;99.90
31527;DHT22;18136;42.236;-73.040;2023-05-29T03:34:45;17.00;99.90
31527;DHT22;18136;42.236;-73.040;2023-05-29T03:37:11;16.90;99.90
31527;DHT22;18136;42.236;-73.040;2023-05-29T03:39:39;16.90;99.90
31527;DHT22;18136;42.236;-73.040;2023-05-29T03:42:05;16.80;99.90
31527;DHT22;18136;42.236;-73.040;2023-05-29T03:44:31;16.70;99.90
31527;DHT22;18136;42.236;-73.040;2023-05-29T03:46:57;16.60;99.90
31527;DHT22;18136;42.236;-73.040;2023-05-29T03:49:24;16.50;99.90
31527;DHT22;18136;42.236;-73.040;2023-05-29T03:51:51;16.40;99.90
31527;DHT22;18136;42.236;-73.040;2023-05-29T03:54:18;16.30;99.90
31527;DHT22;18136;42.236;-73.040;2023-05-29T03:56:44;16.30;99.90
31527;DHT22;18136;42.236;-73.040;2023-05-29T03:59:11;16.30;99.90
31527;DHT22;18136;42.236;-73.040;2023-05-29T04:01:37;16.30;99.90
31527;DHT22;18136;42.236;-73.040;2023-05-29T04:04:03;16.30;99.90
31527;DHT22;18136;42.236;-73.040;2023-05-29T04:06:29;16.30;99.90
31527;DHT22;18136;42.236;-73.040;2023-05-29T04:08:55;16.30;99.90
31527;DHT22;18136;42.236;-73.040;2023-05-29T04:11:22;16.30;99.90
31527;DHT22;18136;42.236;-73.040;2023-05-29T04:13:48;16.20;99.90
31527;DHT22;18136;42.236;-73.040;2023-05-29T04:16:15;16.20;99.90
31527;DHT22;18136;42.236;-73.040;2023-05-29T04:18:41;16.20;99.90
31527;DHT22;18136;42.236;-73.040;2023-05-29T04:21:08;16.30;99.90
31527;DHT22;18136;42.236;-73.040;2023-05-29T04:23:34;16.30;99.90
31527;DHT22;18136;42.236;-73.040;2023-05-29T04:26:00;16.40;99.90
31527;DHT22;18136;42.236;-73.040;2023-05-29T04:28:31;16.40;99.90
31527;DHT22;18136;42.236;-73.040;2023-05-29T04:30:57;16.40;99.90
31527;DHT22;18136;42.236;-73.040;2023-05-29T04:33:24;16.40;99.90
31527;DHT22;18136;42.236;-73.040;2023-05-29T04:35:50;16.30;99.90
31527;DHT22;18136;42.236;-73.040;2023-05-29T04:38:18;16.30;99.90
31527;DHT22;18136;42.236;-73.040;2023-05-29T04:40:51;16.30;99.90
31527;DHT22;18136;42.236;-73.040;2023-05-29T04:43:18;16.30;99.90
31527;DHT22;18136;42.236;-73.040;2023-05-29T04:45:44;16.30;99.90
31527;DHT22;18136;42.236;-73.040;2023-05-29T04:48:10;16.30;99.90
31527;DHT22;18136;42.236;-73.040;2023-05-29T04:50:36;16.30;99.90
31527;DHT22;18136;42.236;-73.040;2023-05-29T04:53:04;16.20;99.90
31527;DHT22;18136;42.236;-73.040;2023-05-29T04:55:30;16.30;99.90
31527;DHT22;18136;42.236;-73.040;2023-05-29T04:57:56;16.20;99.90
31527;DHT22;18136;42.236;-73.040;2023-05-29T05:00:22;16.20;99.90
31527;DHT22;18136;42.236;-73.040;2023-05-29T05:02:49;16.20;99.90
31527;DHT22;18136;42.236;-73.040;2023-05-29T05:05:17;16.20;99.90
31527;DHT22;18136;42.236;-73.040;2023-05-29T05:07:43;16.10;99.90
31527;DHT22;18136;42.236;-73.040;2023-05-29T05:10:10;16.10;99.90
31527;DHT22;18136;42.236;-73.040;2023-05-29T05:12:36;16.00;99.90
31527;DHT22;18136;42.236;-73.040;2023-05-29T05:15:02;16.00;99.90
31527;DHT22;18136;42.236;-73.040;2023-05-29T05:17:30;15.90;99.90
31527;DHT22;18136;42.236;-73.040;2023-05-29T05:19:56;15.90;99.90
31527;DHT22;18136;42.236;-73.040;2023-05-29T05:22:22;15.90;99.90
31527;DHT22;18136;42.236;-73.040;2023-05-29T05:24:49;15.80;99.90
31527;DHT22;18136;42.236;-73.040;2023-05-29T05:27:15;15.80;99.90
31527;DHT22;18136;42.236;-73.040;2023-05-29T05:29:41;15.70;99.90
31527;DHT22;18136;42.236;-73.040;2023-05-29T05:32:07;15.70;99.90
31527;DHT22;18136;42.236;-73.040;2023-05-29T05:34:33;15.70;99.90
31527;DHT22;18136;42.236;-73.040;2023-05-29T05:37:00;15.60;99.90
31527;DHT22;18136;42.236;-73.040;2023-05-29T05:39:26;15.60;99.90
31527;DHT22;18136;42.236;-73.040;2023-05-29T05:41:52;15.60;99.90
31527;DHT22;18136;42.236;-73.040;2023-05-29T05:44:18;15.60;99.90
31527;DHT22;18136;42.236;-73.040;2023-05-29T05:46:44;15.60;99.90
31527;DHT22;18136;42.236;-73.040;2023-05-29T05:49:11;15.60;99.90
31527;DHT22;18136;42.236;-73.040;2023-05-29T05:51:37;15.50;99.90
31527;DHT22;18136;42.236;-73.040;2023-05-29T05:54:03;15.50;99.90
31527;DHT22;18136;42.236;-73.040;2023-05-29T05:56:29;15.50;99.90
31527;DHT22;18136;42.236;-73.040;2023-05-29T05:58:57;15.40;99.90
31527;DHT22;18136;42.236;-73.040;2023-05-29T06:01:23;15.40;99.90
31527;DHT22;18136;42.236;-73.040;2023-05-29T06:03:49;15.30;99.90
31527;DHT22;18136;42.236;-73.040;2023-05-29T06:06:15;15.30;99.90
31527;DHT22;18136;42.236;-73.040;2023-05-29T06:08:42;15.30;99.90
31527;DHT22;18136;42.236;-73.040;2023-05-29T06:11:09;15.20;99.90
31527;DHT22;18136;42.236;-73.040;2023-05-29T06:13:35;15.10;99.90
31527;DHT22;18136;42.236;-73.040;2023-05-29T06:16:01;15.10;99.90
31527;DHT22;18136;42.236;-73.040;2023-05-29T06:18:27;15.10;99.90
31527;DHT22;18136;42.236;-73.040;2023-05-29T06:20:53;15.10;99.90
31527;DHT22;18136;42.236;-73.040;2023-05-29T06:23:20;15.00;99.90
31527;DHT22;18136;42.236;-73.040;2023-05-29T06:25:46;15.00;99.90
31527;DHT22;18136;42.236;-73.040;2023-05-29T06:28:12;14.90;99.90
31527;DHT22;18136;42.236;-73.040;2023-05-29T06:30:39;14.80;99.90
31527;DHT22;18136;42.236;-73.040;2023-05-29T06:33:05;14.70;99.90
31527;DHT22;18136;42.236;-73.040;2023-05-29T06:35:31;14.70;99.90
31527;DHT22;18136;42.236;-73.040;2023-05-29T06:37:58;14.60;99.90
31527;DHT22;18136;42.236;-73.040;2023-05-29T06:40:24;14.60;99.90
31527;DHT22;18136;42.236;-73.040;2023-05-29T06:42:50;14.60;99.90
31527;DHT22;18136;42.236;-73.040;2023-05-29T06:45:16;14.50;99.90
31527;DHT22;18136;42.236;-73.040;2023-05-29T06:47:43;14.50;99.90
31527;DHT22;18136;42.236;-73.040;2023-05-29T06:50:09;14.50;99.90
31527;DHT22;18136;42.236;-73.040;2023-05-29T06:52:35;14.50;99.90
31527;DHT22;18136;42.236;-73.040;2023-05-29T06:55:02;14.40;99.90
31527;DHT22;18136;42.236;-73.040;2023-05-29T06:57:28;14.30;99.90
31527;DHT22;18136;42.236;-73.040;2023-05-29T06:59:55;14.30;99.90
31527;DHT22;18136;42.236;-73.040;2023-05-29T07:02:21;14.30;99.90
31527;DHT22;18136;42.236;-73.040;2023-05-29T07:04:47;14.30;99.90
31527;DHT22;18136;42.236;-73.040;2023-05-29T07:07:14;14.20;99.90
31527;DHT22;18136;42.236;-73.040;2023-05-29T07:09:41;14.20;99.90
31527;DHT22;18136;42.236;-73.040;2023-05-29T07:12:07;14.10;99.90
31527;DHT22;18136;42.236;-73.040;2023-05-29T07:14:33;14.10;99.90
31527;DHT22;18136;42.236;-73.040;2023-05-29T07:16:59;14.00;99.90
31527;DHT22;18136;42.236;-73.040;2023-05-29T07:19:26;14.00;99.90
31527;DHT22;18136;42.236;-73.040;2023-05-29T07:21:52;13.90;99.90
31527;DHT22;18136;42.236;-73.040;2023-05-29T07:24:18;13.90;99.90
31527;DHT22;18136;42.236;-73.040;2023-05-29T07:26:44;13.80;99.90
31527;DHT22;18136;42.236;-73.040;2023-05-29T07:29:10;13.70;99.90
31527;DHT22;18136;42.236;-73.040;2023-05-29T07:31:38;13.70;99.90
31527;DHT22;18136;42.236;-73.040;2023-05-29T07:34:06;13.60;99.90
31527;DHT22;18136;42.236;-73.040;2023-05-29T07:36:32;13.60;99.90
31527;DHT22;18136;42.236;-73.040;2023-05-29T07:38:58;13.50;99.90
31527;DHT22;18136;42.236;-73.040;2023-05-29T07:41:24;13.50;99.90
31527;DHT22;18136;42.236;-73.040;2023-05-29T07:43:52;13.40;99.90
31527;DHT22;18136;42.236;-73.040;2023-05-29T07:46:19;13.40;99.90
31527;DHT22;18136;42.236;-73.040;2023-05-29T07:48:45;13.30;99.90
31527;DHT22;18136;42.236;-73.040;2023-05-29T07:51:14;13.30;99.90
31527;DHT22;18136;42.236;-73.040;2023-05-29T07:53:40;13.30;99.90
31527;DHT22;18136;42.236;-73.040;2023-05-29T07:56:06;13.20;99.90
31527;DHT22;18136;42.236;-73.040;2023-05-29T07:58:32;13.20;99.90
31527;DHT22;18136;42.236;-73.040;2023-05-29T08:00:58;13.20;99.90
31527;DHT22;18136;42.236;-73.040;2023-05-29T08:03:25;13.20;99.90
31527;DHT22;18136;42.236;-73.040;2023-05-29T08:05:51;13.10;99.90
31527;DHT22;18136;42.236;-73.040;2023-05-29T08:08:17;13.10;99.90
31527;DHT22;18136;42.236;-73.040;2023-05-29T08:10:43;13.10;99.90
31527;DHT22;18136;42.236;-73.040;2023-05-29T08:13:10;13.10;99.90
31527;DHT22;18136;42.236;-73.040;2023-05-29T08:15:36;13.10;99.90
31527;DHT22;18136;42.236;-73.040;2023-05-29T08:18:03;13.10;99.90
31527;DHT22;18136;42.236;-73.040;2023-05-29T08:20:29;13.10;99.90
31527;DHT22;18136;42.236;-73.040;2023-05-29T08:22:55;13.10;99.90
31527;DHT22;18136;42.236;-73.040;2023-05-29T08:25:21;13.10;99.90
31527;DHT22;18136;42.236;-73.040;2023-05-29T08:27:47;13.10;99.90
31527;DHT22;18136;42.236;-73.040;2023-05-29T08:30:13;13.10;99.90
31527;DHT22;18136;42.236;-73.040;2023-05-29T08:32:39;13.10;99.90
31527;DHT22;18136;42.236;-73.040;2023-05-29T08:35:06;13.00;99.90
31527;DHT22;18136;42.236;-73.040;2023-05-29T08:37:32;13.00;99.90
31527;DHT22;18136;42.236;-73.040;2023-05-29T08:39:58;12.90;99.90
31527;DHT22;18136;42.236;-73.040;2023-05-29T08:42:32;12.90;99.90
31527;DHT22;18136;42.236;-73.040;2023-05-29T08:45:02;12.90;99.90
31527;DHT22;18136;42.236;-73.040;2023-05-29T08:47:32;12.90;99.90
31527;DHT22;18136;42.236;-73.040;2023-05-29T08:50:00;12.90;99.90
31527;DHT22;18136;42.236;-73.040;2023-05-29T08:52:31;12.90;99.90
31527;DHT22;18136;42.236;-73.040;2023-05-29T08:55:01;12.90;99.90
31527;DHT22;18136;42.236;-73.040;2023-05-29T08:57:29;12.90;99.90
31527;DHT22;18136;42.236;-73.040;2023-05-29T08:59:57;12.80;99.90
31527;DHT22;18136;42.236;-73.040;2023-05-29T09:02:23;12.80;99.90
31527;DHT22;18136;42.236;-73.040;2023-05-29T09:04:49;12.80;99.90
31527;DHT22;18136;42.236;-73.040;2023-05-29T09:07:16;12.80;99.90
31527;DHT22;18136;42.236;-73.040;2023-05-29T09:09:45;12.80;99.90
31527;DHT22;18136;42.236;-73.040;2023-05-29T09:12:11;12.80;99.90
31527;DHT22;18136;42.236;-73.040;2023-05-29T09:14:40;12.70;99.90
31527;DHT22;18136;42.236;-73.040;2023-05-29T09:17:07;12.80;99.90
31527;DHT22;18136;42.236;-73.040;2023-05-29T09:19:35;12.70;99.90
31527;DHT22;18136;42.236;-73.040;2023-05-29T09:22:12;12.70;99.90
31527;DHT22;18136;42.236;-73.040;2023-05-29T09:24:45;12.70;99.90
31527;DHT22;18136;42.236;-73.040;2023-05-29T09:27:15;12.70;99.90
31527;DHT22;18136;42.236;-73.040;2023-05-29T09:29:42;12.70;99.90
31527;DHT22;18136;42.236;-73.040;2023-05-29T09:32:13;12.70;99.90
31527;DHT22;18136;42.236;-73.040;2023-05-29T09:34:41;12.70;99.90
31527;DHT22;18136;42.236;-73.040;2023-05-29T09:37:11;12.70;99.90
31527;DHT22;18136;42.236;-73.040;2023-05-29T09:39:50;12.70;99.90
31527;DHT22;18136;42.236;-73.040;2023-05-29T09:42:21;12.70;99.90
31527;DHT22;18136;42.236;-73.040;2023-05-29T09:44:50;12.70;99.90
31527;DHT22;18136;42.236;-73.040;2023-05-29T09:47:20;12.70;99.90
31527;DHT22;18136;42.236;-73.040;2023-05-29T09:49:47;12.70;99.90
31527;DHT22;18136;42.236;-73.040;2023-05-29T09:52:15;12.70;99.90
31527;DHT22;18136;42.236;-73.040;2023-05-29T09:54:44;12.70;99.90
31527;DHT22;18136;42.236;-73.040;2023-05-29T09:57:13;12.80;99.90
31527;DHT22;18136;42.236;-73.040;2023-05-29T09:59:44;12.80;99.90
31527;DHT22;18136;42.236;-73.040;2023-05-29T10:02:11;12.90;99.90
31527;DHT22;18136;42.236;-73.040;2023-05-29T10:04:39;12.90;99.90
31527;DHT22;18136;42.236;-73.040;2023-05-29T10:07:27;12.90;99.90
31527;DHT22;18136;42.236;-73.040;2023-05-29T10:09:59;12.90;99.90
31527;DHT22;18136;42.236;-73.040;2023-05-29T10:12:27;13.00;99.90
31527;DHT22;18136;42.236;-73.040;2023-05-29T10:14:56;13.00;99.90
31527;DHT22;18136;42.236;-73.040;2023-05-29T10:17:28;13.00;99.90
31527;DHT22;18136;42.236;-73.040;2023-05-29T10:19:58;13.00;99.90
31527;DHT22;18136;42.236;-73.040;2023-05-29T10:22:26;13.10;99.90
31527;DHT22;18136;42.236;-73.040;2023-05-29T10:24:53;13.10;99.90
31527;DHT22;18136;42.236;-73.040;2023-05-29T10:27:22;13.10;99.90
31527;DHT22;18136;42.236;-73.040;2023-05-29T10:37:42;13.20;99.90
31527;DHT22;18136;42.236;-73.040;2023-05-29T10:40:10;13.20;99.90
31527;DHT22;18136;42.236;-73.040;2023-05-29T10:42:48;13.20;99.90
31527;DHT22;18136;42.236;-73.040;2023-05-29T10:50:47;13.30;99.90
31527;DHT22;18136;42.236;-73.040;2023-05-29T10:53:18;13.30;99.90
31527;DHT22;18136;42.236;-73.040;2023-05-29T10:55:48;13.30;99.90
31527;DHT22;18136;42.236;-73.040;2023-05-29T10:58:22;13.30;99.90
31527;DHT22;18136;42.236;-73.040;2023-05-29T11:00:54;13.30;99.90
31527;DHT22;18136;42.236;-73.040;2023-05-29T11:03:23;13.40;99.90
31527;DHT22;18136;42.236;-73.040;2023-05-29T11:08:44;13.40;99.90
31527;DHT22;18136;42.236;-73.040;2023-05-29T11:11:12;13.40;99.90
31527;DHT22;18136;42.236;-73.040;2023-05-29T11:13:39;13.50;99.90
31527;DHT22;18136;42.236;-73.040;2023-05-29T11:18:52;13.60;99.90
31527;DHT22;18136;42.236;-73.040;2023-05-29T11:21:38;13.60;99.90
31527;DHT22;18136;42.236;-73.040;2023-05-29T11:24:22;13.70;99.90
31527;DHT22;18136;42.236;-73.040;2023-05-29T11:26:51;13.70;99.90
31527;DHT22;18136;42.236;-73.040;2023-05-29T11:29:26;13.70;99.90
31527;DHT22;18136;42.236;-73.040;2023-05-29T11:32:02;13.80;99.90
31527;DHT22;18136;42.236;-73.040;2023-05-29T11:34:31;13.80;99.90
31527;DHT22;18136;42.236;-73.040;2023-05-29T11:37:01;13.90;99.90
31527;DHT22;18136;42.236;-73.040;2023-05-29T11:39:29;13.90;99.90
31527;DHT22;18136;42.236;-73.040;2023-05-29T11:41:56;14.00;99.90
31527;DHT22;18136;42.236;-73.040;2023-05-29T11:44:25;14.00;99.90
31527;DHT22;18136;42.236;-73.040;2023-05-29T11:47:06;14.00;99.90
31527;DHT22;18136;42.236;-73.040;2023-05-29T11:49:34;14.10;99.90
31527;DHT22;18136;42.236;-73.040;2023-05-29T11:54:33;14.20;99.90
31527;DHT22;18136;42.236;-73.040;2023-05-29T11:57:03;14.20;99.90
31527;DHT22;18136;42.236;-73.040;2023-05-29T11:59:32;14.30;99.90
31527;DHT22;18136;42.236;-73.040;2023-05-29T12:02:02;14.30;99.90
31527;DHT22;18136;42.236;-73.040;2023-05-29T12:04:28;14.40;99.90
31527;DHT22;18136;42.236;-73.040;2023-05-29T12:06:55;14.40;99.90
31527;DHT22;18136;42.236;-73.040;2023-05-29T12:09:25;14.50;99.90
31527;DHT22;18136;42.236;-73.040;2023-05-29T12:11:53;14.60;99.90
31527;DHT22;18136;42.236;-73.040;2023-05-29T12:14:20;14.60;99.90
31527;DHT22;18136;42.236;-73.040;2023-05-29T12:16:47;14.70;99.90
31527;DHT22;18136;42.236;-73.040;2023-05-29T12:19:13;14.70;99.90
31527;DHT22;18136;42.236;-73.040;2023-05-29T12:21:41;14.80;99.90
31527;DHT22;18136;42.236;-73.040;2023-05-29T12:24:11;14.90;99.90
31527;DHT22;18136;42.236;-73.040;2023-05-29T12:26:37;14.90;99.90
31527;DHT22;18136;42.236;-73.040;2023-05-29T12:29:11;15.00;99.90
31527;DHT22;18136;42.236;-73.040;2023-05-29T12:31:37;15.10;99.90
31527;DHT22;18136;42.236;-73.040;2023-05-29T12:34:10;15.20;99.90
31527;DHT22;18136;42.236;-73.040;2023-05-29T12:36:40;15.30;99.90
31527;DHT22;18136;42.236;-73.040;2023-05-29T12:39:08;15.40;99.90
31527;DHT22;18136;42.236;-73.040;2023-05-29T12:41:39;15.50;99.90
31527;DHT22;18136;42.236;-73.040;2023-05-29T12:44:06;15.50;99.90
31527;DHT22;18136;42.236;-73.040;2023-05-29T12:46:40;15.70;99.80
31527;DHT22;18136;42.236;-73.040;2023-05-29T12:49:16;15.80;99.90
31527;DHT22;18136;42.236;-73.040;2023-05-29T12:51:44;15.90;98.90
31527;DHT22;18136;42.236;-73.040;2023-05-29T12:54:11;16.00;99.90
31527;DHT22;18136;42.236;-73.040;2023-05-29T12:56:39;16.20;99.90
31527;DHT22;18136;42.236;-73.040;2023-05-29T12:59:09;16.30;99.40
31527;DHT22;18136;42.236;-73.040;2023-05-29T13:01:36;16.40;99.90
31527;DHT22;18136;42.236;-73.040;2023-05-29T13:04:09;16.60;99.10
31527;DHT22;18136;42.236;-73.040;2023-05-29T13:06:38;16.70;99.40
31527;DHT22;18136;42.236;-73.040;2023-05-29T13:09:04;16.90;99.30
31527;DHT22;18136;42.236;-73.040;2023-05-29T13:11:34;17.10;99.40
31527;DHT22;18136;42.236;-73.040;2023-05-29T13:14:00;17.20;99.20
31527;DHT22;18136;42.236;-73.040;2023-05-29T13:16:27;17.40;99.40
31527;DHT22;18136;42.236;-73.040;2023-05-29T13:18:53;17.60;98.40
31527;DHT22;18136;42.236;-73.040;2023-05-29T13:21:19;17.70;98.10
31527;DHT22;18136;42.236;-73.040;2023-05-29T13:23:45;17.80;98.70
31527;DHT22;18136;42.236;-73.040;2023-05-29T13:26:13;17.90;96.20
31527;DHT22;18136;42.236;-73.040;2023-05-29T13:28:39;18.00;95.80
31527;DHT22;18136;42.236;-73.040;2023-05-29T13:31:05;18.10;96.30
31527;DHT22;18136;42.236;-73.040;2023-05-29T13:33:32;18.30;97.80
31527;DHT22;18136;42.236;-73.040;2023-05-29T13:35:58;18.40;95.70
31527;DHT22;18136;42.236;-73.040;2023-05-29T13:38:24;18.40;93.10
31527;DHT22;18136;42.236;-73.040;2023-05-29T13:40:50;18.50;94.60
31527;DHT22;18136;42.236;-73.040;2023-05-29T13:43:16;18.70;96.00
31527;DHT22;18136;42.236;-73.040;2023-05-29T13:45:42;18.90;97.60
31527;DHT22;18136;42.236;-73.040;2023-05-29T13:48:09;19.00;95.30
31527;DHT22;18136;42.236;-73.040;2023-05-29T13:50:35;19.10;95.30
31527;DHT22;18136;42.236;-73.040;2023-05-29T13:53:01;19.20;96.20
31527;DHT22;18136;42.236;-73.040;2023-05-29T13:55:27;19.40;96.20
31527;DHT22;18136;42.236;-73.040;2023-05-29T13:57:53;19.60;94.70
31527;DHT22;18136;42.236;-73.040;2023-05-29T14:00:19;19.60;96.00
31527;DHT22;18136;42.236;-73.040;2023-05-29T14:02:45;19.80;94.70
31527;DHT22;18136;42.236;-73.040;2023-05-29T14:05:12;19.80;93.20
31527;DHT22;18136;42.236;-73.040;2023-05-29T14:07:38;19.80;96.10
31527;DHT22;18136;42.236;-73.040;2023-05-29T14:10:05;19.90;94.80
31527;DHT22;18136;42.236;-73.040;2023-05-29T14:12:31;19.90;93.80
31527;DHT22;18136;42.236;-73.040;2023-05-29T14:14:57;19.90;92.40
31527;DHT22;18136;42.236;-73.040;2023-05-29T14:17:23;20.00;94.90
31527;DHT22;18136;42.236;-73.040;2023-05-29T14:19:51;20.10;93.90
31527;DHT22;18136;42.236;-73.040;2023-05-29T14:22:18;20.30;94.70
31527;DHT22;18136;42.236;-73.040;2023-05-29T14:24:45;20.40;94.50
31527;DHT22;18136;42.236;-73.040;2023-05-29T14:27:11;20.60;94.40
31527;DHT22;18136;42.236;-73.040;2023-05-29T14:29:37;20.70;94.70
31527;DHT22;18136;42.236;-73.040;2023-05-29T14:32:04;20.80;95.30
31527;DHT22;18136;42.236;-73.040;2023-05-29T14:34:30;21.00;95.80
31527;DHT22;18136;42.236;-73.040;2023-05-29T14:36:57;21.00;93.40
31527;DHT22;18136;42.236;-73.040;2023-05-29T14:39:23;21.00;93.40
31527;DHT22;18136;42.236;-73.040;2023-05-29T14:41:49;21.00;94.30
31527;DHT22;18136;42.236;-73.040;2023-05-29T14:44:16;21.10;94.40
31527;DHT22;18136;42.236;-73.040;2023-05-29T14:46:42;21.20;93.90
31527;DHT22;18136;42.236;-73.040;2023-05-29T14:49:08;21.50;94.20
31527;DHT22;18136;42.236;-73.040;2023-05-29T14:51:34;21.70;94.00
31527;DHT22;18136;42.236;-73.040;2023-05-29T14:54:02;21.90;94.80
31527;DHT22;18136;42.236;-73.040;2023-05-29T14:56:28;22.00;91.90
31527;DHT22;18136;42.236;-73.040;2023-05-29T14:58:54;21.90;93.10
31527;DHT22;18136;42.236;-73.040;2023-05-29T15:01:20;22.00;89.20
31527;DHT22;18136;42.236;-73.040;2023-05-29T15:03:46;22.00;91.50
31527;DHT22;18136;42.236;-73.040;2023-05-29T15:06:12;22.00;91.20
31527;DHT22;18136;42.236;-73.040;2023-05-29T15:08:39;22.10;90.10
31527;DHT22;18136;42.236;-73.040;2023-05-29T15:11:07;22.20;91.30
31527;DHT22;18136;42.236;-73.040;2023-05-29T15:13:35;22.30;89.30
31527;DHT22;18136;42.236;-73.040;2023-05-29T15:16:01;22.40;91.20
31527;DHT22;18136;42.236;-73.040;2023-05-29T15:18:32;22.40;85.90
31527;DHT22;18136;42.236;-73.040;2023-05-29T15:20:58;22.40;90.80
31527;DHT22;18136;42.236;-73.040;2023-05-29T15:23:25;22.50;87.80
31527;DHT22;18136;42.236;-73.040;2023-05-29T15:25:52;22.60;92.00
31527;DHT22;18136;42.236;-73.040;2023-05-29T15:28:18;22.50;86.00
31527;DHT22;18136;42.236;-73.040;2023-05-29T15:30:45;22.40;90.10
31527;DHT22;18136;42.236;-73.040;2023-05-29T15:33:11;22.50;88.00
31527;DHT22;18136;42.236;-73.040;2023-05-29T15:35:38;22.40;90.00